sensor_id;sensor_type;location;lat;lon;timestamp;pressure;altitude;pressure_sealevel;temperature;humidity
11525;BME280;5819;49.648;8.330;2023-01-31T00:01:33;101358.56;;;3.93;100.00
11525;BME280;5819;49.648;8.330;2023-01-31T00:04:03;101359.41;;;3.92;100.00
11525;BME280;5819;49.648;8.330;2023-01-31T00:06:34;101361.97;;;3.93;100.00
11525;BME280;5819;49.648;8.330;2023-01-31T00:09:04;101366.28;;;3.93;100.00
11525;BME280;5819;49.648;8.330;2023-01-31T00:11:33;101362.84;;;3.94;100.00
11525;BME280;5819;49.648;8.330;2023-01-31T00:14:02;101372.28;;;3.99;100.00
11525;BME280;5819;49.648;8.330;2023-01-31T00:16:31;101366.28;;;4.06;100.00
11525;BME280;5819;49.648;8.330;2023-01-31T00:18:59;101366.28;;;4.02;100.00
11525;BME280;5819;49.648;8.330;2023-01-31T00:21:29;101364.53;;;4.05;100.00
11525;BME280;5819;49.648;8.330;2023-01-31T00:24:05;101368.84;;;3.96;100.00
11525;BME280;5819;49.648;8.330;2023-01-31T00:26:36;101362.84;;;3.94;100.00
11525;BME280;5819;49.648;8.330;2023-01-31T00:29:09;101359.41;;;3.92;100.00
11525;BME280;5819;49.648;8.330;2023-01-31T00:31:44;101366.28;;;4.03;100.00
11525;BME280;5819;49.648;8.330;2023-01-31T00:34:17;101361.13;;;3.97;100.00
11525;BME280;5819;49.648;8.330;2023-01-31T00:36:49;101360.28;;;3.92;100.00
11525;BME280;5819;49.648;8.330;2023-01-31T00:39:23;101358.56;;;4.00;100.00
11525;BME280;5819;49.648;8.330;2023-01-31T00:41:54;101355.97;;;3.90;100.00
11525;BME280;5819;49.648;8.330;2023-01-31T00:44:25;101349.97;;;3.94;100.00
11525;BME280;5819;49.648;8.330;2023-01-31T00:46:56;101359.41;;;3.92;100.00
11525;BME280;5819;49.648;8.330;2023-01-31T00:49:25;101358.53;;;3.71;100.00
11525;BME280;5819;49.648;8.330;2023-01-31T00:51:53;101367.09;;;3.67;100.00
11525;BME280;5819;49.648;8.330;2023-01-31T00:54:24;101365.38;;;3.60;100.00
11525;BME280;5819;49.648;8.330;2023-01-31T00:56:53;101361.91;;;3.51;100.00
11525;BME280;5819;49.648;8.330;2023-01-31T00:59:21;101359.34;;;3.51;100.00
11525;BME280;5819;49.648;8.330;2023-01-31T01:01:49;101366.19;;;3.49;100.00
11525;BME280;5819;49.648;8.330;2023-01-31T01:04:17;101361.00;;;3.35;100.00
11525;BME280;5819;49.648;8.330;2023-01-31T01:06:45;101365.25;;;3.19;100.00
11525;BME280;5819;49.648;8.330;2023-01-31T01:09:13;101357.53;;;3.22;100.00
11525;BME280;5819;49.648;8.330;2023-01-31T01:11:42;101365.19;;;3.10;100.00
11525;BME280;5819;49.648;8.330;2023-01-31T01:14:10;101364.31;;;3.02;100.00
11525;BME280;5819;49.648;8.330;2023-01-31T01:16:38;101372.94;;;3.12;100.00
11525;BME280;5819;49.648;8.330;2023-01-31T01:19:11;101367.69;;;2.92;100.00
11525;BME280;5819;49.648;8.330;2023-01-31T01:21:39;101365.09;;;2.91;100.00
11525;BME280;5819;49.648;8.330;2023-01-31T01:24:11;101373.63;;;2.85;100.00
11525;BME280;5819;49.648;8.330;2023-01-31T01:26:41;101374.47;;;2.76;100.00
11525;BME280;5819;49.648;8.330;2023-01-31T01:29:10;101392.41;;;2.72;100.00
11525;BME280;5819;49.648;8.330;2023-01-31T01:31:38;101378.72;;;2.71;100.00
11525;BME280;5819;49.648;8.330;2023-01-31T01:34:11;101377.88;;;2.72;100.00
11525;BME280;5819;49.648;8.330;2023-01-31T01:36:40;101391.53;;;2.68;100.00
11525;BME280;5819;49.648;8.330;2023-01-31T01:39:09;101390.63;;;2.63;100.00
11525;BME280;5819;49.648;8.330;2023-01-31T01:41:42;101392.28;;;2.55;100.00
11525;BME280;5819;49.648;8.330;2023-01-31T01:44:42;101396.59;;;2.56;100.00
11525;BME280;5819;49.648;8.330;2023-01-31T01:47:15;101394.81;;;2.48;100.00
11525;BME280;5819;49.648;8.330;2023-01-31T01:49:47;101395.63;;;2.41;100.00
11525;BME280;5819;49.648;8.330;2023-01-31T01:52:17;101399.00;;;2.37;100.00
11525;BME280;5819;49.648;8.330;2023-01-31T01:54:48;101398.03;;;2.25;100.00
11525;BME280;5819;49.648;8.330;2023-01-31T01:57:23;101395.41;;;2.15;100.00
11525;BME280;5819;49.648;8.330;2023-01-31T01:59:54;101401.34;;;2.11;100.00
11525;BME280;5819;49.648;8.330;2023-01-31T02:02:24;101409.84;;;2.04;100.00
11525;BME280;5819;49.648;8.330;2023-01-31T02:04:53;101409.06;;;2.12;100.00
11525;BME280;5819;49.648;8.330;2023-01-31T02:07:20;101408.25;;;2.18;100.00
11525;BME280;5819;49.648;8.330;2023-01-31T02:09:53;101405.59;;;2.09;100.00
11525;BME280;5819;49.648;8.330;2023-01-31T02:12:25;101404.66;;;2.01;100.00
11525;BME280;5819;49.648;8.330;2023-01-31T02:14:54;101400.44;;;2.03;100.00
11525;BME280;5819;49.648;8.330;2023-01-31T02:17:23;101405.56;;;2.06;100.00
11525;BME280;5819;49.648;8.330;2023-01-31T02:20:02;101400.38;;;1.98;100.00
11525;BME280;5819;49.648;8.330;2023-01-31T02:22:38;101405.47;;;1.92;100.00
11525;BME280;5819;49.648;8.330;2023-01-31T02:25:37;101401.25;;;1.99;100.00
11525;BME280;5819;49.648;8.330;2023-01-31T02:34:18;101408.88;;;1.94;100.00
11525;BME280;5819;49.648;8.330;2023-01-31T02:36:57;101405.47;;;1.94;100.00
11525;BME280;5819;49.648;8.330;2023-01-31T02:39:34;101407.09;;;1.84;100.00
11525;BME280;5819;49.648;8.330;2023-01-31T02:42:12;101401.06;;;1.82;100.00
11525;BME280;5819;49.648;8.330;2023-01-31T02:44:48;101403.66;;;1.80;100.00
11525;BME280;5819;49.648;8.330;2023-01-31T02:47:37;101397.66;;;1.83;100.00
11525;BME280;5819;49.648;8.330;2023-01-31T02:50:13;101390.75;;;1.77;100.00
11525;BME280;5819;49.648;8.330;2023-01-31T02:52:50;101395.84;;;1.73;100.00
11525;BME280;5819;49.648;8.330;2023-01-31T02:55:22;101395.78;;;1.64;100.00
11525;BME280;5819;49.648;8.330;2023-01-31T02:58:12;101396.47;;;1.51;100.00
11525;BME280;5819;49.648;8.330;2023-01-31T03:00:43;101397.34;;;1.51;100.00
11525;BME280;5819;49.648;8.330;2023-01-31T03:03:17;101393.91;;;1.51;100.00
11525;BME280;5819;49.648;8.330;2023-01-31T03:06:09;101397.28;;;1.47;100.00
11525;BME280;5819;49.648;8.330;2023-01-31T03:08:40;101401.50;;;1.43;100.00
11525;BME280;5819;49.648;8.330;2023-01-31T03:11:10;101406.63;;;1.45;100.00
11525;BME280;5819;49.648;8.330;2023-01-31T03:13:46;101413.56;;;1.50;100.00
11525;BME280;5819;49.648;8.330;2023-01-31T03:16:22;101416.06;;;1.46;100.00
11525;BME280;5819;49.648;8.330;2023-01-31T03:19:14;101416.84;;;1.38;100.00
11525;BME280;5819;49.648;8.330;2023-01-31T03:21:49;101421.97;;;1.38;100.00
11525;BME280;5819;49.648;8.330;2023-01-31T03:24:20;101419.41;;;1.38;100.00
11525;BME280;5819;49.648;8.330;2023-01-31T03:26:53;101418.56;;;1.39;100.00
11525;BME280;5819;49.648;8.330;2023-01-31T03:29:22;101421.09;;;1.38;100.00
11525;BME280;5819;49.648;8.330;2023-01-31T03:31:55;101421.91;;;1.34;100.00
11525;BME280;5819;49.648;8.330;2023-01-31T03:34:24;101420.97;;;1.27;100.00
11525;BME280;5819;49.648;8.330;2023-01-31T03:36:58;101431.19;;;1.26;100.00
11525;BME280;5819;49.648;8.330;2023-01-31T03:39:42;101434.59;;;1.25;100.00
11525;BME280;5819;49.648;8.330;2023-01-31T03:42:17;101436.25;;;1.20;100.00
11525;BME280;5819;49.648;8.330;2023-01-31T03:44:54;101446.47;;;1.18;100.00
11525;BME280;5819;49.648;8.330;2023-01-31T03:47:26;101441.31;;;1.17;100.00
11525;BME280;5819;49.648;8.330;2023-01-31T03:49:58;101446.47;;;1.18;100.00
11525;BME280;5819;49.648;8.330;2023-01-31T03:52:32;101446.59;;;1.29;100.00
11525;BME280;5819;49.648;8.330;2023-01-31T03:55:06;101455.22;;;1.34;100.00
11525;BME280;5819;49.648;8.330;2023-01-31T03:57:37;101461.19;;;1.31;100.00
11525;BME280;5819;49.648;8.330;2023-01-31T04:00:12;101463.75;;;1.33;100.00
11525;BME280;5819;49.648;8.330;2023-01-31T04:02:49;101453.50;;;1.33;100.00
11525;BME280;5819;49.648;8.330;2023-01-31T04:05:22;101450.97;;;1.34;100.00
11525;BME280;5819;49.648;8.330;2023-01-31T04:07:57;101450.03;;;1.28;100.00
11525;BME280;5819;49.648;8.330;2023-01-31T04:10:28;101452.41;;;1.14;100.00
11525;BME280;5819;49.648;8.330;2023-01-31T04:12:56;101454.19;;;1.20;100.00
11525;BME280;5819;49.648;8.330;2023-01-31T04:15:24;101452.59;;;1.29;100.00
11525;BME280;5819;49.648;8.330;2023-01-31T04:17:52;101455.97;;;1.24;100.00
11525;BME280;5819;49.648;8.330;2023-01-31T04:20:20;101455.94;;;1.22;100.00
11525;BME280;5819;49.648;8.330;2023-01-31T04:22:48;101457.63;;;1.20;100.00
11525;BME280;5819;49.648;8.330;2023-01-31T04:25:17;101451.66;;;1.23;100.00
11525;BME280;5819;49.648;8.330;2023-01-31T04:27:45;101459.25;;;1.17;100.00
11525;BME280;5819;49.648;8.330;2023-01-31T04:30:13;101457.50;;;1.13;100.00
11525;BME280;5819;49.648;8.330;2023-01-31T04:32:41;101453.22;;;1.13;100.00
11525;BME280;5819;49.648;8.330;2023-01-31T04:35:09;101453.22;;;1.12;100.00
11525;BME280;5819;49.648;8.330;2023-01-31T04:37:37;101448.94;;;1.11;100.00
11525;BME280;5819;49.648;8.330;2023-01-31T04:40:06;101444.78;;;1.19;100.00
11525;BME280;5819;49.648;8.330;2023-01-31T04:42:35;101443.06;;;1.18;100.00
11525;BME280;5819;49.648;8.330;2023-01-31T04:45:04;101429.38;;;1.17;100.00
11525;BME280;5819;49.648;8.330;2023-01-31T04:47:32;101424.31;;;1.22;100.00
11525;BME280;5819;49.648;8.330;2023-01-31T04:50:00;101420.00;;;1.16;100.00
11525;BME280;5819;49.648;8.330;2023-01-31T04:52:28;101431.00;;;1.11;100.00
11525;BME280;5819;49.648;8.330;2023-01-31T04:54:56;101430.25;;;1.16;100.00
11525;BME280;5819;49.648;8.330;2023-01-31T04:57:24;101431.88;;;1.11;100.00
11525;BME280;5819;49.648;8.330;2023-01-31T04:59:53;101431.78;;;1.04;100.00
11525;BME280;5819;49.648;8.330;2023-01-31T05:02:21;101432.56;;;1.00;100.00
11525;BME280;5819;49.648;8.330;2023-01-31T05:04:49;101420.53;;;0.94;100.00
11525;BME280;5819;49.648;8.330;2023-01-31T05:07:17;101427.38;;;0.97;100.00
11525;BME280;5819;49.648;8.330;2023-01-31T05:09:45;101426.63;;;1.02;100.00
11525;BME280;5819;49.648;8.330;2023-01-31T05:12:13;101424.91;;;1.03;100.00
11525;BME280;5819;49.648;8.330;2023-01-31T05:14:40;101423.16;;;0.99;100.00
11525;BME280;5819;49.648;8.330;2023-01-31T05:17:11;101413.81;;;1.02;100.00
11525;BME280;5819;49.648;8.330;2023-01-31T05:19:38;101418.13;;;1.06;100.00
11525;BME280;5819;49.648;8.330;2023-01-31T05:22:07;101422.38;;;1.06;100.00
11525;BME280;5819;49.648;8.330;2023-01-31T05:24:36;101413.84;;;1.04;100.00
11525;BME280;5819;49.648;8.330;2023-01-31T05:27:03;101423.97;;;0.98;100.00
11525;BME280;5819;49.648;8.330;2023-01-31T05:29:32;101419.66;;;0.92;100.00
11525;BME280;5819;49.648;8.330;2023-01-31T05:32:01;101426.50;;;0.94;100.00
11525;BME280;5819;49.648;8.330;2023-01-31T05:34:31;101422.16;;;0.87;100.00
11525;BME280;5819;49.648;8.330;2023-01-31T05:36:59;101404.22;;;0.89;100.00
11525;BME280;5819;49.648;8.330;2023-01-31T05:39:28;101409.41;;;0.92;100.00
11525;BME280;5819;49.648;8.330;2023-01-31T05:41:57;101408.59;;;0.94;100.00
11525;BME280;5819;49.648;8.330;2023-01-31T05:44:24;101407.69;;;0.92;100.00
11525;BME280;5819;49.648;8.330;2023-01-31T05:46:52;101408.63;;;0.96;100.00
11525;BME280;5819;49.648;8.330;2023-01-31T05:49:20;101405.28;;;1.03;100.00
11525;BME280;5819;49.648;8.330;2023-01-31T05:51:49;101401.94;;;1.09;100.00
11525;BME280;5819;49.648;8.330;2023-01-31T05:54:17;101407.97;;;1.14;100.00
11525;BME280;5819;49.648;8.330;2023-01-31T05:56:45;101414.94;;;1.22;100.00
11525;BME280;5819;49.648;8.330;2023-01-31T05:59:12;101409.84;;;1.24;100.00
11525;BME280;5819;49.648;8.330;2023-01-31T06:01:40;101407.38;;;1.34;100.00
11525;BME280;5819;49.648;8.330;2023-01-31T06:04:08;101409.22;;;1.46;100.00
11525;BME280;5819;49.648;8.330;2023-01-31T06:06:36;101415.41;;;1.63;100.00
11525;BME280;5819;49.648;8.330;2023-01-31T06:09:05;101421.41;;;1.65;100.00
11525;BME280;5819;49.648;8.330;2023-01-31T06:11:33;101420.66;;;1.74;100.00
11525;BME280;5819;49.648;8.330;2023-01-31T06:14:01;101414.75;;;1.79;100.00
11525;BME280;5819;49.648;8.330;2023-01-31T06:16:29;101410.47;;;1.81;100.00
11525;BME280;5819;49.648;8.330;2023-01-31T06:18:57;101419.06;;;1.83;100.00
11525;BME280;5819;49.648;8.330;2023-01-31T06:21:25;101415.75;;;1.95;100.00
11525;BME280;5819;49.648;8.330;2023-01-31T06:23:53;101413.13;;;1.87;100.00
11525;BME280;5819;49.648;8.330;2023-01-31T06:26:23;101407.16;;;1.92;100.00
11525;BME280;5819;49.648;8.330;2023-01-31T06:28:50;101404.56;;;1.87;100.00
11525;BME280;5819;49.648;8.330;2023-01-31T06:31:18;101409.72;;;1.88;100.00
11525;BME280;5819;49.648;8.330;2023-01-31T06:33:46;101407.13;;;1.90;100.00
11525;BME280;5819;49.648;8.330;2023-01-31T06:36:15;101406.22;;;1.85;100.00
11525;BME280;5819;49.648;8.330;2023-01-31T06:38:48;101408.78;;;1.83;100.00
11525;BME280;5819;49.648;8.330;2023-01-31T06:41:16;101415.72;;;1.94;100.00
11525;BME280;5819;49.648;8.330;2023-01-31T06:43:45;101414.03;;;1.96;100.00
11525;BME280;5819;49.648;8.330;2023-01-31T06:46:13;101415.69;;;1.91;100.00
11525;BME280;5819;49.648;8.330;2023-01-31T06:48:44;101409.56;;;1.78;100.00
11525;BME280;5819;49.648;8.330;2023-01-31T06:51:13;101412.97;;;1.72;100.00
11525;BME280;5819;49.648;8.330;2023-01-31T06:53:41;101421.47;;;1.70;100.00
11525;BME280;5819;49.648;8.330;2023-01-31T06:56:10;101424.84;;;1.64;100.00
11525;BME280;5819;49.648;8.330;2023-01-31T06:58:39;101432.41;;;1.57;100.00
11525;BME280;5819;49.648;8.330;2023-01-31T07:01:12;101430.66;;;1.51;100.00
11525;BME280;5819;49.648;8.330;2023-01-31T07:03:43;101437.44;;;1.46;100.00
11525;BME280;5819;49.648;8.330;2023-01-31T07:06:12;101441.69;;;1.46;100.00
11525;BME280;5819;49.648;8.330;2023-01-31T07:08:39;101450.09;;;1.34;100.00
11525;BME280;5819;49.648;8.330;2023-01-31T07:11:08;101450.03;;;1.28;100.00
11525;BME280;5819;49.648;8.330;2023-01-31T07:13:37;101450.06;;;1.31;100.00
11525;BME280;5819;49.648;8.330;2023-01-31T07:16:06;101455.16;;;1.28;100.00
11525;BME280;5819;49.648;8.330;2023-01-31T07:18:38;101462.81;;;1.26;100.00
11525;BME280;5819;49.648;8.330;2023-01-31T07:21:08;101471.41;;;1.30;100.00
11525;BME280;5819;49.648;8.330;2023-01-31T07:23:37;101472.25;;;1.30;100.00
11525;BME280;5819;49.648;8.330;2023-01-31T07:26:06;101471.50;;;1.36;100.00
11525;BME280;5819;49.648;8.330;2023-01-31T07:28:36;101476.63;;;1.36;100.00
11525;BME280;5819;49.648;8.330;2023-01-31T07:31:10;101471.53;;;1.40;100.00
11525;BME280;5819;49.648;8.330;2023-01-31T07:33:42;101476.63;;;1.36;100.00
11525;BME280;5819;49.648;8.330;2023-01-31T07:36:12;101470.66;;;1.38;100.00
11525;BME280;5819;49.648;8.330;2023-01-31T07:38:41;101479.34;;;1.50;100.00
11525;BME280;5819;49.648;8.330;2023-01-31T07:41:10;101481.09;;;1.54;100.00
11525;BME280;5819;49.648;8.330;2023-01-31T07:43:39;101482.91;;;1.62;100.00
11525;BME280;5819;49.648;8.330;2023-01-31T07:46:08;101474.59;;;1.80;100.00
11525;BME280;5819;49.648;8.330;2023-01-31T07:48:37;101465.31;;;1.94;100.00
11525;BME280;5819;49.648;8.330;2023-01-31T07:51:09;101457.00;;;2.15;100.00
11525;BME280;5819;49.648;8.330;2023-01-31T07:53:39;101466.38;;;2.13;100.00
11525;BME280;5819;49.648;8.330;2023-01-31T07:56:10;101461.25;;;2.14;100.00
11525;BME280;5819;49.648;8.330;2023-01-31T07:58:39;101474.16;;;2.22;100.00
11525;BME280;5819;49.648;8.330;2023-01-31T08:01:09;101482.06;;;2.40;100.00
11525;BME280;5819;49.648;8.330;2023-01-31T08:03:57;101481.03;;;2.23;100.00
11525;BME280;5819;49.648;8.330;2023-01-31T08:06:47;101481.00;;;2.20;100.00
11525;BME280;5819;49.648;8.330;2023-01-31T08:09:21;101493.94;;;2.33;100.00
11525;BME280;5819;49.648;8.330;2023-01-31T08:11:51;101487.25;;;2.48;100.00
11525;BME280;5819;49.648;8.330;2023-01-31T08:14:19;101488.09;;;2.50;100.00
11525;BME280;5819;49.648;8.330;2023-01-31T08:16:51;101478.06;;;2.78;100.00
11525;BME280;5819;49.648;8.330;2023-01-31T08:19:19;101475.44;;;2.71;100.00
11525;BME280;5819;49.648;8.330;2023-01-31T08:21:49;101481.34;;;2.59;100.00
11525;BME280;5819;49.648;8.330;2023-01-31T08:24:17;101471.13;;;2.65;100.00
11525;BME280;5819;49.648;8.330;2023-01-31T08:26:45;101474.66;;;2.79;100.00
11525;BME280;5819;49.648;8.330;2023-01-31T08:29:13;101474.59;;;2.72;100.00
11525;BME280;5819;49.648;8.330;2023-01-31T08:31:40;101477.22;;;2.76;100.00
11525;BME280;5819;49.648;8.330;2023-01-31T08:34:09;101478.88;;;2.71;100.00
11525;BME280;5819;49.648;8.330;2023-01-31T08:36:38;101475.47;;;2.72;100.00
11525;BME280;5819;49.648;8.330;2023-01-31T08:39:08;101472.91;;;2.77;100.00
11525;BME280;5819;49.648;8.330;2023-01-31T08:41:38;101478.81;;;2.62;100.00
11525;BME280;5819;49.648;8.330;2023-01-31T08:44:06;101473.72;;;2.68;100.00
11525;BME280;5819;49.648;8.330;2023-01-31T08:46:35;101469.47;;;2.72;100.00
11525;BME280;5819;49.648;8.330;2023-01-31T08:49:05;101461.81;;;2.76;100.00
11525;BME280;5819;49.648;8.330;2023-01-31T08:51:33;101459.22;;;2.76;100.00
11525;BME280;5819;49.648;8.330;2023-01-31T08:54:01;101464.38;;;2.79;100.00
11525;BME280;5819;49.648;8.330;2023-01-31T08:56:31;101468.69;;;2.80;100.00
11525;BME280;5819;49.648;8.330;2023-01-31T08:58:59;101475.56;;;2.85;100.00
11525;BME280;5819;49.648;8.330;2023-01-31T09:01:27;101484.13;;;2.90;100.00
11525;BME280;5819;49.648;8.330;2023-01-31T09:03:56;101489.25;;;2.87;100.00
11525;BME280;5819;49.648;8.330;2023-01-31T09:06:25;101483.25;;;2.83;100.00
11525;BME280;5819;49.648;8.330;2023-01-31T09:08:55;101479.84;;;2.87;100.00
11525;BME280;5819;49.648;8.330;2023-01-31T09:11:26;101485.00;;;2.93;100.00
11525;BME280;5819;49.648;8.330;2023-01-31T09:13:57;101482.59;;;3.13;100.00
11525;BME280;5819;49.648;8.330;2023-01-31T09:16:25;101473.19;;;3.15;100.00
11525;BME280;5819;49.648;8.330;2023-01-31T09:18:53;101463.81;;;3.27;100.00
11525;BME280;5819;49.648;8.330;2023-01-31T09:21:22;101468.13;;;3.32;100.00
11525;BME280;5819;49.648;8.330;2023-01-31T09:23:54;101460.44;;;3.39;100.00
11525;BME280;5819;49.648;8.330;2023-01-31T09:26:22;101446.75;;;3.49;100.00
11525;BME280;5819;49.648;8.330;2023-01-31T09:28:50;101445.94;;;3.52;100.00
11525;BME280;5819;49.648;8.330;2023-01-31T09:31:20;101444.22;;;3.52;100.00
11525;BME280;5819;49.648;8.330;2023-01-31T09:33:48;101431.44;;;3.78;100.00
11525;BME280;5819;49.648;8.330;2023-01-31T09:36:18;101429.75;;;3.94;100.00
11525;BME280;5819;49.648;8.330;2023-01-31T09:38:46;101437.41;;;3.63;100.00
11525;BME280;5819;49.648;8.330;2023-01-31T09:41:18;101440.81;;;3.59;100.00
11525;BME280;5819;49.648;8.330;2023-01-31T09:43:51;101421.97;;;3.74;100.00
11525;BME280;5819;49.648;8.330;2023-01-31T09:46:26;101438.28;;;3.77;100.00
11525;BME280;5819;49.648;8.330;2023-01-31T09:48:59;101440.84;;;3.68;100.00
11525;BME280;5819;49.648;8.330;2023-01-31T09:51:32;101428.00;;;3.73;100.00
11525;BME280;5819;49.648;8.330;2023-01-31T09:54:01;101427.19;;;3.85;100.00
11525;BME280;5819;49.648;8.330;2023-01-31T09:56:35;101428.03;;;3.91;100.00
11525;BME280;5819;49.648;8.330;2023-01-31T09:59:16;101434.91;;;4.01;100.00
11525;BME280;5819;49.648;8.330;2023-01-31T10:01:54;101452.91;;;3.80;100.00
11525;BME280;5819;49.648;8.330;2023-01-31T10:04:46;101447.75;;;3.94;100.00
11525;BME280;5819;49.648;8.330;2023-01-31T10:07:23;101447.72;;;3.82;100.00
11525;BME280;5819;49.648;8.330;2023-01-31T10:09:58;101446.91;;;3.92;100.00
11525;BME280;5819;49.648;8.330;2023-01-31T10:12:32;101439.22;;;4.04;100.00
11525;BME280;5819;49.648;8.330;2023-01-31T10:15:09;101421.19;;;4.17;100.00
11525;BME280;5819;49.648;8.330;2023-01-31T10:17:45;101424.66;;;4.12;100.00
11525;BME280;5819;49.648;8.330;2023-01-31T10:20:19;101416.94;;;4.29;100.00
11525;BME280;5819;49.648;8.330;2023-01-31T10:22:51;101434.06;;;4.14;100.00
11525;BME280;5819;49.648;8.330;2023-01-31T10:25:25;101449.50;;;4.04;100.00
11525;BME280;5819;49.648;8.330;2023-01-31T10:27:57;101445.19;;;3.98;100.00
11525;BME280;5819;49.648;8.330;2023-01-31T10:30:31;101413.47;;;4.02;100.00
11525;BME280;5819;49.648;8.330;2023-01-31T10:33:18;101436.66;;;4.04;100.00
11525;BME280;5819;49.648;8.330;2023-01-31T10:35:50;101442.69;;;4.29;100.00
11525;BME280;5819;49.648;8.330;2023-01-31T10:38:22;101426.38;;;4.34;100.00
11525;BME280;5819;49.648;8.330;2023-01-31T10:40:55;101424.66;;;4.51;100.00
11525;BME280;5819;49.648;8.330;2023-01-31T10:43:31;101427.19;;;4.69;100.00
11525;BME280;5819;49.648;8.330;2023-01-31T10:46:00;101430.63;;;4.70;100.00
11525;BME280;5819;49.648;8.330;2023-01-31T10:48:30;101417.78;;;4.68;100.00
11525;BME280;5819;49.648;8.330;2023-01-31T10:51:07;101416.94;;;4.48;100.00
11525;BME280;5819;49.648;8.330;2023-01-31T10:53:52;101429.78;;;4.54;100.00
11525;BME280;5819;49.648;8.330;2023-01-31T10:56:27;101428.09;;;4.49;100.00
11525;BME280;5819;49.648;8.330;2023-01-31T10:58:59;101423.81;;;4.48;100.00
11525;BME280;5819;49.648;8.330;2023-01-31T11:01:29;101411.78;;;4.56;100.00
11525;BME280;5819;49.648;8.330;2023-01-31T11:04:00;101417.78;;;4.61;100.00
11525;BME280;5819;49.648;8.330;2023-01-31T11:06:28;101414.34;;;4.51;100.00
11525;BME280;5819;49.648;8.330;2023-01-31T11:08:58;101397.19;;;4.47;100.00
11525;BME280;5819;49.648;8.330;2023-01-31T11:11:27;101378.28;;;4.48;100.00
11525;BME280;5819;49.648;8.330;2023-01-31T11:13:57;101361.94;;;4.66;100.00
11525;BME280;5819;49.648;8.330;2023-01-31T11:16:27;101346.47;;;4.66;100.00
11525;BME280;5819;49.648;8.330;2023-01-31T11:18:58;101325.88;;;4.67;100.00
11525;BME280;5819;49.648;8.330;2023-01-31T11:21:29;101339.59;;;4.66;100.00
11525;BME280;5819;49.648;8.330;2023-01-31T11:24:01;101336.16;;;4.70;100.00
11525;BME280;5819;49.648;8.330;2023-01-31T11:26:32;101333.59;;;4.67;100.00
11525;BME280;5819;49.648;8.330;2023-01-31T11:29:06;101332.72;;;4.75;100.00
11525;BME280;5819;49.648;8.330;2023-01-31T11:31:39;101336.16;;;4.72;100.00
11525;BME280;5819;49.648;8.330;2023-01-31T11:34:22;101336.13;;;4.78;100.00
11525;BME280;5819;49.648;8.330;2023-01-31T11:36:50;101320.72;;;4.64;100.00
11525;BME280;5819;49.648;8.330;2023-01-31T11:39:25;101322.44;;;4.53;100.00
11525;BME280;5819;49.648;8.330;2023-01-31T11:41:54;101305.25;;;4.66;100.00
11525;BME280;5819;49.648;8.330;2023-01-31T11:44:22;101288.94;;;4.67;100.00
11525;BME280;5819;49.648;8.330;2023-01-31T11:46:52;101293.22;;;4.72;100.00
11525;BME280;5819;49.648;8.330;2023-01-31T11:49:27;101280.31;;;4.69;100.00
11525;BME280;5819;49.648;8.330;2023-01-31T11:51:58;101281.22;;;4.64;100.00
11525;BME280;5819;49.648;8.330;2023-01-31T11:54:30;101301.84;;;4.56;100.00
11525;BME280;5819;49.648;8.330;2023-01-31T11:57:00;101298.41;;;4.59;100.00
11525;BME280;5819;49.648;8.330;2023-01-31T11:59:29;101283.81;;;4.59;100.00
11525;BME280;5819;49.648;8.330;2023-01-31T12:01:58;101279.50;;;4.54;100.00
11525;BME280;5819;49.648;8.330;2023-01-31T12:04:32;101273.47;;;4.62;100.00
11525;BME280;5819;49.648;8.330;2023-01-31T12:07:03;101270.03;;;4.63;100.00
11525;BME280;5819;49.648;8.330;2023-01-31T12:09:41;101258.03;;;4.61;100.00
11525;BME280;5819;49.648;8.330;2023-01-31T12:12:27;101264.03;;;4.61;100.00
11525;BME280;5819;49.648;8.330;2023-01-31T12:15:01;101255.41;;;4.71;100.00
11525;BME280;5819;49.648;8.330;2023-01-31T12:17:34;101253.69;;;4.72;100.00
11525;BME280;5819;49.648;8.330;2023-01-31T12:20:15;101237.28;;;4.90;100.00
11525;BME280;5819;49.648;8.330;2023-01-31T12:23:01;101231.25;;;4.97;100.00
11525;BME280;5819;49.648;8.330;2023-01-31T12:25:46;101225.16;;;5.07;100.00
11525;BME280;5819;49.648;8.330;2023-01-31T12:28:23;101233.81;;;4.94;100.00
11525;BME280;5819;49.648;8.330;2023-01-31T12:33:58;101244.19;;;4.88;100.00
11525;BME280;5819;49.648;8.330;2023-01-31T12:36:38;101229.53;;;4.93;100.00
11525;BME280;5819;49.648;8.330;2023-01-31T12:39:21;101226.97;;;4.93;100.00
11525;BME280;5819;49.648;8.330;2023-01-31T12:42:05;101200.22;;;5.12;100.00
11525;BME280;5819;49.648;8.330;2023-01-31T12:44:42;101194.94;;;5.27;100.00
11525;BME280;5819;49.648;8.330;2023-01-31T12:47:34;101189.84;;;5.21;100.00
11525;BME280;5819;49.648;8.330;2023-01-31T12:50:28;101207.06;;;5.14;100.00
11525;BME280;5819;49.648;8.330;2023-01-31T12:53:17;101201.91;;;5.14;100.00
11525;BME280;5819;49.648;8.330;2023-01-31T12:55:57;101193.47;;;4.93;100.00
11525;BME280;5819;49.648;8.330;2023-01-31T12:58:42;101185.72;;;4.91;100.00
11525;BME280;5819;49.648;8.330;2023-01-31T13:01:17;101164.94;;;5.14;100.00
11525;BME280;5819;49.648;8.330;2023-01-31T13:03:59;101148.53;;;5.23;100.00
11525;BME280;5819;49.648;8.330;2023-01-31T13:06:31;101162.28;;;5.28;100.00
11525;BME280;5819;49.648;8.330;2023-01-31T13:09:05;101166.66;;;5.16;100.00
11525;BME280;5819;49.648;8.330;2023-01-31T13:11:40;101159.75;;;5.20;100.00
11525;BME280;5819;49.648;8.330;2023-01-31T13:14:13;101151.88;;;5.34;100.00
11525;BME280;5819;49.648;8.330;2023-01-31T13:16:46;101133.59;;;5.59;100.00
11525;BME280;5819;49.648;8.330;2023-01-31T13:19:19;101152.53;;;5.58;100.00
11525;BME280;5819;49.648;8.330;2023-01-31T13:21:53;101149.09;;;5.61;100.00
11525;BME280;5819;49.648;8.330;2023-01-31T13:24:27;101131.69;;;5.78;100.00
11525;BME280;5819;49.648;8.330;2023-01-31T13:27:01;101132.59;;;5.77;100.00
11525;BME280;5819;49.648;8.330;2023-01-31T13:29:33;101143.84;;;5.69;100.00
11525;BME280;5819;49.648;8.330;2023-01-31T13:32:08;101146.41;;;5.72;100.00
11525;BME280;5819;49.648;8.330;2023-01-31T13:34:41;101146.50;;;5.61;100.00